sensor_id;sensor_type;location;lat;lon;timestamp;P1;durP1;ratioP1;P2;durP2;ratioP2
40555;SDS011;26250;45.422;11.100;2023-07-20T08:27:44;13.25;;;7.57;;
40555;SDS011;26250;45.422;11.100;2023-07-20T08:30:13;12.23;;;7.30;;
40555;SDS011;26250;45.422;11.100;2023-07-20T08:32:40;12.80;;;8.18;;
40555;SDS011;26250;45.422;11.100;2023-07-20T08:35:07;9.48;;;6.97;;
40555;SDS011;26250;45.422;11.100;2023-07-20T08:37:34;8.68;;;6.88;;
40555;SDS011;26250;45.422;11.100;2023-07-20T08:40:01;7.95;;;7.07;;
40555;SDS011;26250;45.422;11.100;2023-07-20T08:42:30;13.30;;;7.43;;
40555;SDS011;26250;45.422;11.100;2023-07-20T08:44:57;11.63;;;7.00;;
40555;SDS011;26250;45.422;11.100;2023-07-20T08:47:25;11.45;;;7.18;;
40555;SDS011;26250;45.422;11.100;2023-07-20T08:49:53;10.18;;;7.00;;
40555;SDS011;26250;45.422;11.100;2023-07-20T08:52:22;13.05;;;7.22;;
40555;SDS011;26250;45.422;11.100;2023-07-20T08:54:49;12.70;;;7.72;;
40555;SDS011;26250;45.422;11.100;2023-07-20T08:57:19;11.25;;;7.55;;
40555;SDS011;26250;45.422;11.100;2023-07-20T08:59:48;12.38;;;8.82;;
40555;SDS011;26250;45.422;11.100;2023-07-20T09:02:18;14.80;;;8.40;;
40555;SDS011;26250;45.422;11.100;2023-07-20T09:04:48;12.15;;;8.63;;
40555;SDS011;26250;45.422;11.100;2023-07-20T09:07:15;10.07;;;8.02;;
40555;SDS011;26250;45.422;11.100;2023-07-20T09:09:43;14.48;;;8.57;;
40555;SDS011;26250;45.422;11.100;2023-07-20T09:12:13;11.57;;;8.82;;
40555;SDS011;26250;45.422;11.100;2023-07-20T09:14:44;16.10;;;9.70;;
40555;SDS011;26250;45.422;11.100;2023-07-20T09:17:14;12.57;;;9.05;;
40555;SDS011;26250;45.422;11.100;2023-07-20T09:19:47;10.20;;;8.95;;
40555;SDS011;26250;45.422;11.100;2023-07-20T09:22:15;14.97;;;9.27;;
40555;SDS011;26250;45.422;11.100;2023-07-20T09:24:42;13.27;;;7.43;;
40555;SDS011;26250;45.422;11.100;2023-07-20T09:27:11;9.95;;;8.70;;
40555;SDS011;26250;45.422;11.100;2023-07-20T09:29:51;17.85;;;9.02;;
40555;SDS011;26250;45.422;11.100;2023-07-20T09:32:18;11.48;;;7.95;;
40555;SDS011;26250;45.422;11.100;2023-07-20T09:34:50;21.38;;;8.45;;
40555;SDS011;26250;45.422;11.100;2023-07-20T09:37:21;9.35;;;7.22;;
40555;SDS011;26250;45.422;11.100;2023-07-20T09:39:51;8.20;;;5.37;;
40555;SDS011;26250;45.422;11.100;2023-07-20T09:42:25;6.25;;;5.07;;
40555;SDS011;26250;45.422;11.100;2023-07-20T09:44:56;6.88;;;4.63;;
40555;SDS011;26250;45.422;11.100;2023-07-20T09:47:23;17.30;;;5.03;;
40555;SDS011;26250;45.422;11.100;2023-07-20T09:49:58;9.03;;;4.40;;
40555;SDS011;26250;45.422;11.100;2023-07-20T09:52:32;9.73;;;5.13;;
40555;SDS011;26250;45.422;11.100;2023-07-20T09:55:04;7.10;;;4.85;;
40555;SDS011;26250;45.422;11.100;2023-07-20T09:57:35;7.28;;;5.13;;
40555;SDS011;26250;45.422;11.100;2023-07-20T10:00:03;7.68;;;4.28;;
40555;SDS011;26250;45.422;11.100;2023-07-20T10:02:45;7.65;;;5.30;;
40555;SDS011;26250;45.422;11.100;2023-07-20T10:05:13;6.82;;;5.15;;
40555;SDS011;26250;45.422;11.100;2023-07-20T10:07:47;8.48;;;5.50;;
40555;SDS011;26250;45.422;11.100;2023-07-20T10:10:17;7.28;;;5.13;;
40555;SDS011;26250;45.422;11.100;2023-07-20T10:12:46;8.82;;;5.72;;
40555;SDS011;26250;45.422;11.100;2023-07-20T10:20:32;10.82;;;6.35;;
40555;SDS011;26250;45.422;11.100;2023-07-20T10:23:01;8.48;;;6.63;;
40555;SDS011;26250;45.422;11.100;2023-07-20T10:25:30;10.77;;;6.47;;
40555;SDS011;26250;45.422;11.100;2023-07-20T10:27:58;11.02;;;7.00;;
40555;SDS011;26250;45.422;11.100;2023-07-20T10:30:26;11.00;;;6.68;;
40555;SDS011;26250;45.422;11.100;2023-07-20T10:32:54;7.85;;;6.45;;
40555;SDS011;26250;45.422;11.100;2023-07-20T10:35:21;10.43;;;6.05;;
40555;SDS011;26250;45.422;11.100;2023-07-20T10:37:49;10.50;;;5.80;;
40555;SDS011;26250;45.422;11.100;2023-07-20T10:40:38;9.07;;;5.93;;
40555;SDS011;26250;45.422;11.100;2023-07-20T10:43:06;7.25;;;5.95;;
40555;SDS011;26250;45.422;11.100;2023-07-20T10:45:41;9.38;;;6.43;;
40555;SDS011;26250;45.422;11.100;2023-07-20T10:48:22;8.13;;;5.70;;
40555;SDS011;26250;45.422;11.100;2023-07-20T10:51:11;6.85;;;5.68;;
40555;SDS011;26250;45.422;11.100;2023-07-20T10:53:48;8.65;;;5.78;;
40555;SDS011;26250;45.422;11.100;2023-07-20T10:56:22;9.55;;;5.38;;
40555;SDS011;26250;45.422;11.100;2023-07-20T10:58:50;10.23;;;5.32;;
40555;SDS011;26250;45.422;11.100;2023-07-20T11:01:21;8.25;;;5.60;;
40555;SDS011;26250;45.422;11.100;2023-07-20T11:03:56;14.60;;;6.30;;
40555;SDS011;26250;45.422;11.100;2023-07-20T11:09:07;11.23;;;6.38;;
40555;SDS011;26250;45.422;11.100;2023-07-20T11:11:44;9.73;;;6.45;;
40555;SDS011;26250;45.422;11.100;2023-07-20T11:14:23;8.55;;;6.38;;
40555;SDS011;26250;45.422;11.100;2023-07-20T11:16:52;11.90;;;6.15;;
40555;SDS011;26250;45.422;11.100;2023-07-20T11:19:24;13.63;;;6.20;;
40555;SDS011;26250;45.422;11.100;2023-07-20T11:21:57;19.60;;;6.47;;
40555;SDS011;26250;45.422;11.100;2023-07-20T11:24:30;10.88;;;6.47;;
40555;SDS011;26250;45.422;11.100;2023-07-20T11:27:00;16.58;;;6.35;;
40555;SDS011;26250;45.422;11.100;2023-07-20T11:29:30;15.48;;;8.18;;
40555;SDS011;26250;45.422;11.100;2023-07-20T11:32:00;25.75;;;6.55;;
40555;SDS011;26250;45.422;11.100;2023-07-20T11:34:31;10.15;;;5.20;;
40555;SDS011;26250;45.422;11.100;2023-07-20T11:37:00;17.50;;;6.22;;
40555;SDS011;26250;45.422;11.100;2023-07-20T11:39:30;15.80;;;6.47;;
40555;SDS011;26250;45.422;11.100;2023-07-20T11:41:58;11.45;;;6.13;;
40555;SDS011;26250;45.422;11.100;2023-07-20T11:44:28;8.52;;;5.55;;
40555;SDS011;26250;45.422;11.100;2023-07-20T11:47:10;9.27;;;5.55;;
40555;SDS011;26250;45.422;11.100;2023-07-20T11:49:39;10.65;;;6.15;;
40555;SDS011;26250;45.422;11.100;2023-07-20T11:52:10;12.48;;;5.88;;
40555;SDS011;26250;45.422;11.100;2023-07-20T11:54:40;12.63;;;5.40;;
40555;SDS011;26250;45.422;11.100;2023-07-20T11:57:17;12.63;;;5.95;;
40555;SDS011;26250;45.422;11.100;2023-07-20T11:59:57;11.23;;;6.33;;
40555;SDS011;26250;45.422;11.100;2023-07-20T12:02:30;10.95;;;5.25;;
40555;SDS011;26250;45.422;11.100;2023-07-20T12:04:57;10.52;;;6.45;;
40555;SDS011;26250;45.422;11.100;2023-07-20T12:07:27;6.35;;;5.38;;
40555;SDS011;26250;45.422;11.100;2023-07-20T12:12:38;12.77;;;6.30;;
40555;SDS011;26250;45.422;11.100;2023-07-20T12:15:30;12.25;;;6.82;;
40555;SDS011;26250;45.422;11.100;2023-07-20T12:17:59;10.43;;;6.78;;
40555;SDS011;26250;45.422;11.100;2023-07-20T12:20:30;9.98;;;5.70;;
40555;SDS011;26250;45.422;11.100;2023-07-20T12:23:00;5.55;;;4.93;;
40555;SDS011;26250;45.422;11.100;2023-07-20T12:25:36;6.15;;;4.90;;
40555;SDS011;26250;45.422;11.100;2023-07-20T12:28:06;7.57;;;5.25;;
40555;SDS011;26250;45.422;11.100;2023-07-20T12:30:35;8.48;;;4.95;;
40555;SDS011;26250;45.422;11.100;2023-07-20T12:33:05;8.38;;;5.30;;
40555;SDS011;26250;45.422;11.100;2023-07-20T12:35:33;8.73;;;5.43;;
40555;SDS011;26250;45.422;11.100;2023-07-20T12:38:00;6.68;;;4.95;;
40555;SDS011;26250;45.422;11.100;2023-07-20T12:40:27;7.85;;;4.93;;
40555;SDS011;26250;45.422;11.100;2023-07-20T12:42:54;11.65;;;5.38;;
40555;SDS011;26250;45.422;11.100;2023-07-20T12:45:21;7.28;;;4.97;;
40555;SDS011;26250;45.422;11.100;2023-07-20T12:47:49;8.32;;;4.72;;
40555;SDS011;26250;45.422;11.100;2023-07-20T12:50:16;7.75;;;5.43;;
40555;SDS011;26250;45.422;11.100;2023-07-20T12:52:43;10.07;;;4.55;;
40555;SDS011;26250;45.422;11.100;2023-07-20T12:55:10;7.95;;;5.45;;
40555;SDS011;26250;45.422;11.100;2023-07-20T12:57:40;11.95;;;4.07;;
40555;SDS011;26250;45.422;11.100;2023-07-20T13:00:09;8.57;;;4.78;;
40555;SDS011;26250;45.422;11.100;2023-07-20T13:02:38;12.43;;;5.75;;
40555;SDS011;26250;45.422;11.100;2023-07-20T13:05:05;14.70;;;5.78;;
40555;SDS011;26250;45.422;11.100;2023-07-20T13:07:33;5.40;;;3.97;;
40555;SDS011;26250;45.422;11.100;2023-07-20T13:10:05;6.85;;;4.75;;
40555;SDS011;26250;45.422;11.100;2023-07-20T13:12:33;13.90;;;4.97;;
40555;SDS011;26250;45.422;11.100;2023-07-20T13:15:04;11.27;;;4.88;;
40555;SDS011;26250;45.422;11.100;2023-07-20T13:20:03;9.32;;;4.22;;
40555;SDS011;26250;45.422;11.100;2023-07-20T13:22:32;5.80;;;5.22;;
40555;SDS011;26250;45.422;11.100;2023-07-20T13:25:00;6.75;;;4.68;;
40555;SDS011;26250;45.422;11.100;2023-07-20T13:27:27;9.80;;;5.70;;
40555;SDS011;26250;45.422;11.100;2023-07-20T13:29:54;9.07;;;5.15;;
40555;SDS011;26250;45.422;11.100;2023-07-20T13:32:23;8.40;;;5.50;;
40555;SDS011;26250;45.422;11.100;2023-07-20T13:34:53;15.60;;;4.82;;
40555;SDS011;26250;45.422;11.100;2023-07-20T13:37:20;8.70;;;4.95;;
40555;SDS011;26250;45.422;11.100;2023-07-20T13:39:48;9.85;;;4.90;;
40555;SDS011;26250;45.422;11.100;2023-07-20T13:42:15;7.55;;;4.55;;
40555;SDS011;26250;45.422;11.100;2023-07-20T13:44:44;7.45;;;4.85;;
40555;SDS011;26250;45.422;11.100;2023-07-20T13:47:12;6.35;;;4.65;;
40555;SDS011;26250;45.422;11.100;2023-07-20T13:49:43;5.25;;;4.75;;
40555;SDS011;26250;45.422;11.100;2023-07-20T13:52:13;5.68;;;4.50;;
40555;SDS011;26250;45.422;11.100;2023-07-20T13:54:46;6.57;;;4.40;;
40555;SDS011;26250;45.422;11.100;2023-07-20T13:57:16;13.15;;;4.55;;
40555;SDS011;26250;45.422;11.100;2023-07-20T13:59:43;10.88;;;5.13;;
40555;SDS011;26250;45.422;11.100;2023-07-20T14:02:13;14.07;;;5.68;;
40555;SDS011;26250;45.422;11.100;2023-07-20T14:04:44;12.02;;;5.97;;
40555;SDS011;26250;45.422;11.100;2023-07-20T14:07:11;9.25;;;4.85;;
40555;SDS011;26250;45.422;11.100;2023-07-20T14:09:39;8.57;;;4.85;;
40555;SDS011;26250;45.422;11.100;2023-07-20T14:12:25;6.68;;;4.35;;
40555;SDS011;26250;45.422;11.100;2023-07-20T14:14:54;7.68;;;4.63;;
40555;SDS011;26250;45.422;11.100;2023-07-20T14:17:22;5.60;;;4.13;;
40555;SDS011;26250;45.422;11.100;2023-07-20T14:19:49;7.93;;;4.78;;
40555;SDS011;26250;45.422;11.100;2023-07-20T14:22:17;10.43;;;5.97;;
40555;SDS011;26250;45.422;11.100;2023-07-20T14:24:45;8.85;;;4.50;;
40555;SDS011;26250;45.422;11.100;2023-07-20T14:27:12;10.13;;;4.68;;
40555;SDS011;26250;45.422;11.100;2023-07-20T14:29:39;6.85;;;4.97;;
40555;SDS011;26250;45.422;11.100;2023-07-20T14:32:06;7.85;;;4.72;;
40555;SDS011;26250;45.422;11.100;2023-07-20T14:34:37;9.98;;;3.95;;
40555;SDS011;26250;45.422;11.100;2023-07-20T14:37:05;6.03;;;4.57;;
40555;SDS011;26250;45.422;11.100;2023-07-20T14:39:32;9.25;;;5.18;;
40555;SDS011;26250;45.422;11.100;2023-07-20T14:41:59;6.63;;;4.32;;
40555;SDS011;26250;45.422;11.100;2023-07-20T14:44:26;6.00;;;3.80;;
40555;SDS011;26250;45.422;11.100;2023-07-20T14:46:53;11.30;;;5.10;;
40555;SDS011;26250;45.422;11.100;2023-07-20T14:49:39;7.28;;;4.40;;
40555;SDS011;26250;45.422;11.100;2023-07-20T14:52:06;4.93;;;3.60;;
40555;SDS011;26250;45.422;11.100;2023-07-20T14:54:37;8.00;;;5.00;;
40555;SDS011;26250;45.422;11.100;2023-07-20T14:57:04;6.38;;;4.60;;
40555;SDS011;26250;45.422;11.100;2023-07-20T14:59:31;8.15;;;4.47;;
40555;SDS011;26250;45.422;11.100;2023-07-20T15:01:58;16.67;;;4.47;;
40555;SDS011;26250;45.422;11.100;2023-07-20T15:04:28;6.47;;;4.15;;
40555;SDS011;26250;45.422;11.100;2023-07-20T15:06:55;10.02;;;4.13;;
40555;SDS011;26250;45.422;11.100;2023-07-20T15:09:23;11.98;;;4.78;;
40555;SDS011;26250;45.422;11.100;2023-07-20T15:11:49;5.72;;;4.03;;
40555;SDS011;26250;45.422;11.100;2023-07-20T15:14:16;8.30;;;4.20;;
40555;SDS011;26250;45.422;11.100;2023-07-20T15:16:43;8.57;;;4.45;;
40555;SDS011;26250;45.422;11.100;2023-07-20T15:19:15;7.07;;;3.35;;
40555;SDS011;26250;45.422;11.100;2023-07-20T15:21:43;6.95;;;3.67;;
40555;SDS011;26250;45.422;11.100;2023-07-20T15:24:10;4.95;;;3.90;;
40555;SDS011;26250;45.422;11.100;2023-07-20T15:26:37;6.05;;;3.83;;
40555;SDS011;26250;45.422;11.100;2023-07-20T15:29:05;4.25;;;3.85;;
40555;SDS011;26250;45.422;11.100;2023-07-20T15:31:54;9.70;;;4.78;;
40555;SDS011;26250;45.422;11.100;2023-07-20T15:34:24;7.75;;;3.70;;
40555;SDS011;26250;45.422;11.100;2023-07-20T15:36:51;8.60;;;4.05;;
40555;SDS011;26250;45.422;11.100;2023-07-20T15:39:18;6.03;;;4.60;;
40555;SDS011;26250;45.422;11.100;2023-07-20T15:41:47;8.00;;;4.47;;
40555;SDS011;26250;45.422;11.100;2023-07-20T15:44:14;8.13;;;4.20;;
40555;SDS011;26250;45.422;11.100;2023-07-20T15:49:08;9.35;;;5.30;;
40555;SDS011;26250;45.422;11.100;2023-07-20T15:51:35;7.28;;;4.95;;
40555;SDS011;26250;45.422;11.100;2023-07-20T15:54:04;9.95;;;4.80;;
40555;SDS011;26250;45.422;11.100;2023-07-20T15:56:35;10.40;;;5.55;;
40555;SDS011;26250;45.422;11.100;2023-07-20T15:59:04;9.50;;;4.95;;
40555;SDS011;26250;45.422;11.100;2023-07-20T16:01:32;4.78;;;4.30;;
40555;SDS011;26250;45.422;11.100;2023-07-20T16:04:00;5.28;;;4.75;;
40555;SDS011;26250;45.422;11.100;2023-07-20T16:06:27;5.95;;;4.47;;
40555;SDS011;26250;45.422;11.100;2023-07-20T16:08:54;12.98;;;4.38;;
40555;SDS011;26250;45.422;11.100;2023-07-20T16:11:22;11.07;;;4.38;;
40555;SDS011;26250;45.422;11.100;2023-07-20T16:13:52;5.22;;;3.97;;
40555;SDS011;26250;45.422;11.100;2023-07-20T16:16:19;6.03;;;4.50;;
40555;SDS011;26250;45.422;11.100;2023-07-20T16:18:48;6.82;;;4.18;;
40555;SDS011;26250;45.422;11.100;2023-07-20T16:21:20;7.00;;;3.75;;
40555;SDS011;26250;45.422;11.100;2023-07-20T16:23:48;7.20;;;4.40;;
40555;SDS011;26250;45.422;11.100;2023-07-20T16:26:16;8.20;;;4.53;;
40555;SDS011;26250;45.422;11.100;2023-07-20T16:28:43;6.93;;;3.92;;
40555;SDS011;26250;45.422;11.100;2023-07-20T16:31:12;6.60;;;4.22;;
40555;SDS011;26250;45.422;11.100;2023-07-20T16:33:41;12.10;;;4.25;;
40555;SDS011;26250;45.422;11.100;2023-07-20T16:36:12;11.30;;;4.97;;
40555;SDS011;26250;45.422;11.100;2023-07-20T16:38:43;8.57;;;4.13;;
40555;SDS011;26250;45.422;11.100;2023-07-20T16:41:11;6.50;;;4.18;;
40555;SDS011;26250;45.422;11.100;2023-07-20T16:43:39;5.30;;;4.20;;
40555;SDS011;26250;45.422;11.100;2023-07-20T16:46:10;6.07;;;3.97;;
40555;SDS011;26250;45.422;11.100;2023-07-20T16:48:40;5.10;;;3.97;;
40555;SDS011;26250;45.422;11.100;2023-07-20T16:51:10;10.38;;;3.78;;
40555;SDS011;26250;45.422;11.100;2023-07-20T16:53:36;5.40;;;3.85;;
40555;SDS011;26250;45.422;11.100;2023-07-20T16:56:03;7.30;;;4.32;;
40555;SDS011;26250;45.422;11.100;2023-07-20T16:58:30;6.03;;;4.13;;
40555;SDS011;26250;45.422;11.100;2023-07-20T17:01:01;11.30;;;4.60;;
40555;SDS011;26250;45.422;11.100;2023-07-20T17:03:31;5.97;;;4.32;;
40555;SDS011;26250;45.422;11.100;2023-07-20T17:05:59;7.93;;;4.57;;
40555;SDS011;26250;45.422;11.100;2023-07-20T17:08:26;7.78;;;4.07;;
40555;SDS011;26250;45.422;11.100;2023-07-20T17:10:53;9.00;;;3.85;;
40555;SDS011;26250;45.422;11.100;2023-07-20T17:13:20;6.45;;;4.20;;
40555;SDS011;26250;45.422;11.100;2023-07-20T17:15:47;7.55;;;4.13;;
40555;SDS011;26250;45.422;11.100;2023-07-20T17:18:15;8.55;;;3.53;;
40555;SDS011;26250;45.422;11.100;2023-07-20T17:20:44;4.93;;;3.58;;
40555;SDS011;26250;45.422;11.100;2023-07-20T17:23:15;4.53;;;4.05;;
40555;SDS011;26250;45.422;11.100;2023-07-20T17:25:42;7.30;;;4.55;;
40555;SDS011;26250;45.422;11.100;2023-07-20T17:28:16;6.22;;;4.55;;
40555;SDS011;26250;45.422;11.100;2023-07-20T17:30:49;6.68;;;4.72;;
40555;SDS011;26250;45.422;11.100;2023-07-20T17:33:23;4.45;;;3.47;;
40555;SDS011;26250;45.422;11.100;2023-07-20T17:35:51;8.55;;;5.30;;
40555;SDS011;26250;45.422;11.100;2023-07-20T17:38:19;9.20;;;4.78;;
40555;SDS011;26250;45.422;11.100;2023-07-20T17:40:53;14.05;;;4.57;;
40555;SDS011;26250;45.422;11.100;2023-07-20T17:43:20;6.28;;;4.57;;
40555;SDS011;26250;45.422;11.100;2023-07-20T17:45:47;6.63;;;3.92;;
40555;SDS011;26250;45.422;11.100;2023-07-20T17:48:17;11.52;;;4.22;;
40555;SDS011;26250;45.422;11.100;2023-07-20T17:50:44;8.02;;;4.43;;
40555;SDS011;26250;45.422;11.100;2023-07-20T17:53:12;7.25;;;4.43;;
40555;SDS011;26250;45.422;11.100;2023-07-20T17:55:40;5.95;;;4.38;;
40555;SDS011;26250;45.422;11.100;2023-07-20T17:58:07;10.27;;;4.50;;
40555;SDS011;26250;45.422;11.100;2023-07-20T18:00:34;8.65;;;4.38;;
40555;SDS011;26250;45.422;11.100;2023-07-20T18:03:04;6.00;;;3.45;;
40555;SDS011;26250;45.422;11.100;2023-07-20T18:05:31;8.25;;;4.85;;
40555;SDS011;26250;45.422;11.100;2023-07-20T18:07:58;8.55;;;4.45;;
40555;SDS011;26250;45.422;11.100;2023-07-20T18:10:43;7.78;;;4.82;;
40555;SDS011;26250;45.422;11.100;2023-07-20T18:13:10;4.30;;;3.90;;
40555;SDS011;26250;45.422;11.100;2023-07-20T18:15:37;9.65;;;4.72;;
40555;SDS011;26250;45.422;11.100;2023-07-20T18:18:04;11.10;;;4.20;;
40555;SDS011;26250;45.422;11.100;2023-07-20T18:20:31;9.30;;;4.10;;
40555;SDS011;26250;45.422;11.100;2023-07-20T18:23:00;6.30;;;4.32;;
40555;SDS011;26250;45.422;11.100;2023-07-20T18:25:29;7.88;;;4.45;;
40555;SDS011;26250;45.422;11.100;2023-07-20T18:27:56;9.50;;;4.13;;
40555;SDS011;26250;45.422;11.100;2023-07-20T18:30:23;9.75;;;4.70;;
40555;SDS011;26250;45.422;11.100;2023-07-20T18:32:52;7.40;;;4.30;;
40555;SDS011;26250;45.422;11.100;2023-07-20T18:35:19;6.95;;;4.70;;
40555;SDS011;26250;45.422;11.100;2023-07-20T18:37:46;6.30;;;4.22;;
40555;SDS011;26250;45.422;11.100;2023-07-20T18:40:14;11.13;;;4.70;;
40555;SDS011;26250;45.422;11.100;2023-07-20T18:42:43;6.55;;;4.35;;
40555;SDS011;26250;45.422;11.100;2023-07-20T18:45:10;5.90;;;4.90;;
40555;SDS011;26250;45.422;11.100;2023-07-20T18:47:37;9.38;;;4.97;;
40555;SDS011;26250;45.422;11.100;2023-07-20T18:50:04;22.58;;;4.88;;
40555;SDS011;26250;45.422;11.100;2023-07-20T18:52:32;7.43;;;4.40;;
40555;SDS011;26250;45.422;11.100;2023-07-20T18:54:59;13.90;;;5.88;;
40555;SDS011;26250;45.422;11.100;2023-07-20T18:57:26;5.78;;;4.85;;
40555;SDS011;26250;45.422;11.100;2023-07-20T18:59:52;7.82;;;5.25;;
40555;SDS011;26250;45.422;11.100;2023-07-20T19:02:19;12.65;;;5.30;;
40555;SDS011;26250;45.422;11.100;2023-07-20T19:04:47;5.63;;;4.40;;
40555;SDS011;26250;45.422;11.100;2023-07-20T19:07:14;8.63;;;5.35;;
40555;SDS011;26250;45.422;11.100;2023-07-20T19:09:41;6.85;;;4.65;;
40555;SDS011;26250;45.422;11.100;2023-07-20T19:12:08;9.73;;;5.50;;
40555;SDS011;26250;45.422;11.100;2023-07-20T19:14:35;6.70;;;4.88;;
40555;SDS011;26250;45.422;11.100;2023-07-20T19:17:02;9.82;;;5.78;;
40555;SDS011;26250;45.422;11.100;2023-07-20T19:19:30;5.75;;;5.15;;
40555;SDS011;26250;45.422;11.100;2023-07-20T19:21:58;5.65;;;4.55;;
40555;SDS011;26250;45.422;11.100;2023-07-20T19:24:25;9.48;;;5.25;;
40555;SDS011;26250;45.422;11.100;2023-07-20T19:26:52;21.20;;;6.05;;
40555;SDS011;26250;45.422;11.100;2023-07-20T19:29:19;15.25;;;5.15;;
40555;SDS011;26250;45.422;11.100;2023-07-20T19:31:46;22.25;;;4.90;;
40555;SDS011;26250;45.422;11.100;2023-07-20T19:34:13;5.93;;;5.38;;
40555;SDS011;26250;45.422;11.100;2023-07-20T19:36:39;8.38;;;5.20;;
40555;SDS011;26250;45.422;11.100;2023-07-20T19:39:07;9.70;;;5.63;;
40555;SDS011;26250;45.422;11.100;2023-07-20T19:41:35;5.63;;;4.97;;
40555;SDS011;26250;45.422;11.100;2023-07-20T19:44:05;11.40;;;5.35;;
40555;SDS011;26250;45.422;11.100;2023-07-20T19:46:35;7.82;;;5.70;;
40555;SDS011;26250;45.422;11.100;2023-07-20T19:49:05;6.75;;;5.30;;
40555;SDS011;26250;45.422;11.100;2023-07-20T19:51:34;8.00;;;5.30;;
40555;SDS011;26250;45.422;11.100;2023-07-20T19:54:04;10.05;;;5.07;;
40555;SDS011;26250;45.422;11.100;2023-07-20T19:56:34;9.50;;;6.18;;
40555;SDS011;26250;45.422;11.100;2023-07-20T19:59:01;12.38;;;5.80;;
40555;SDS011;26250;45.422;11.100;2023-07-20T20:01:28;6.50;;;5.18;;
40555;SDS011;26250;45.422;11.100;2023-07-20T20:03:58;10.82;;;5.53;;
40555;SDS011;26250;45.422;11.100;2023-07-20T20:06:28;6.18;;;5.05;;
40555;SDS011;26250;45.422;11.100;2023-07-20T20:08:55;8.60;;;5.65;;
40555;SDS011;26250;45.422;11.100;2023-07-20T20:11:21;6.55;;;5.15;;
40555;SDS011;26250;45.422;11.100;2023-07-20T20:13:50;16.52;;;5.70;;
40555;SDS011;26250;45.422;11.100;2023-07-20T20:16:17;12.63;;;5.22;;
40555;SDS011;26250;45.422;11.100;2023-07-20T20:18:45;9.43;;;5.07;;
40555;SDS011;26250;45.422;11.100;2023-07-20T20:21:12;7.13;;;5.22;;
40555;SDS011;26250;45.422;11.100;2023-07-20T20:23:39;8.68;;;5.43;;
40555;SDS011;26250;45.422;11.100;2023-07-20T20:26:06;8.00;;;4.90;;
40555;SDS011;26250;45.422;11.100;2023-07-20T20:28:34;11.00;;;6.07;;
40555;SDS011;26250;45.422;11.100;2023-07-20T20:31:01;8.50;;;5.03;;
40555;SDS011;26250;45.422;11.100;2023-07-20T20:33:30;6.93;;;4.93;;
40555;SDS011;26250;45.422;11.100;2023-07-20T20:36:02;15.30;;;5.77;;
40555;SDS011;26250;45.422;11.100;2023-07-20T20:38:29;5.75;;;4.78;;
40555;SDS011;26250;45.422;11.100;2023-07-20T20:40:56;7.47;;;5.53;;
40555;SDS011;26250;45.422;11.100;2023-07-20T20:43:24;10.32;;;5.10;;
40555;SDS011;26250;45.422;11.100;2023-07-20T20:46:02;7.35;;;5.45;;
40555;SDS011;26250;45.422;11.100;2023-07-20T20:48:31;8.98;;;5.38;;
40555;SDS011;26250;45.422;11.100;2023-07-20T20:51:03;7.03;;;5.05;;
40555;SDS011;26250;45.422;11.100;2023-07-20T20:53:30;9.75;;;4.60;;
40555;SDS011;26250;45.422;11.100;2023-07-20T20:55:58;9.35;;;4.55;;
40555;SDS011;26250;45.422;11.100;2023-07-20T20:58:26;5.28;;;4.32;;
40555;SDS011;26250;45.422;11.100;2023-07-20T21:00:53;10.98;;;4.90;;
40555;SDS011;26250;45.422;11.100;2023-07-20T21:03:20;5.97;;;4.72;;
40555;SDS011;26250;45.422;11.100;2023-07-20T21:05:47;6.05;;;4.43;;
40555;SDS011;26250;45.422;11.100;2023-07-20T21:08:14;7.90;;;4.20;;
40555;SDS011;26250;45.422;11.100;2023-07-20T21:10:44;5.68;;;4.05;;
40555;SDS011;26250;45.422;11.100;2023-07-20T21:13:14;4.82;;;3.78;;
40555;SDS011;26250;45.422;11.100;2023-07-20T21:15:41;7.22;;;3.55;;
40555;SDS011;26250;45.422;11.100;2023-07-20T21:18:10;9.43;;;4.32;;
40555;SDS011;26250;45.422;11.100;2023-07-20T21:20:37;6.78;;;3.75;;
40555;SDS011;26250;45.422;11.100;2023-07-20T21:23:04;7.00;;;4.47;;
40555;SDS011;26250;45.422;11.100;2023-07-20T21:25:31;4.43;;;3.85;;
40555;SDS011;26250;45.422;11.100;2023-07-20T21:27:59;14.88;;;4.38;;
40555;SDS011;26250;45.422;11.100;2023-07-20T21:30:26;6.90;;;4.18;;
40555;SDS011;26250;45.422;11.100;2023-07-20T21:32:55;5.35;;;4.03;;
40555;SDS011;26250;45.422;11.100;2023-07-20T21:35:23;8.32;;;4.25;;
40555;SDS011;26250;45.422;11.100;2023-07-20T21:37:50;4.57;;;3.70;;
40555;SDS011;26250;45.422;11.100;2023-07-20T21:40:17;5.00;;;4.28;;
40555;SDS011;26250;45.422;11.100;2023-07-20T21:42:44;6.57;;;4.07;;
40555;SDS011;26250;45.422;11.100;2023-07-20T21:45:11;11.18;;;4.32;;
40555;SDS011;26250;45.422;11.100;2023-07-20T21:47:38;7.78;;;4.00;;
40555;SDS011;26250;45.422;11.100;2023-07-20T21:50:07;6.20;;;3.90;;
40555;SDS011;26250;45.422;11.100;2023-07-20T21:52:35;5.07;;;3.83;;
40555;SDS011;26250;45.422;11.100;2023-07-20T21:55:02;7.32;;;4.75;;
40555;SDS011;26250;45.422;11.100;2023-07-20T21:57:30;8.65;;;5.13;;
40555;SDS011;26250;45.422;11.100;2023-07-20T21:59:57;6.88;;;4.53;;
40555;SDS011;26250;45.422;11.100;2023-07-20T22:02:24;6.55;;;5.68;;
40555;SDS011;26250;45.422;11.100;2023-07-20T22:04:51;10.32;;;5.55;;
40555;SDS011;26250;45.422;11.100;2023-07-20T22:07:19;10.35;;;5.25;;
40555;SDS011;26250;45.422;11.100;2023-07-20T22:09:47;7.20;;;5.22;;
40555;SDS011;26250;45.422;11.100;2023-07-20T22:12:14;7.43;;;5.28;;
40555;SDS011;26250;45.422;11.100;2023-07-20T22:14:44;6.32;;;4.65;;
40555;SDS011;26250;45.422;11.100;2023-07-20T22:17:11;7.95;;;5.25;;
40555;SDS011;26250;45.422;11.100;2023-07-20T22:19:41;7.78;;;4.93;;
40555;SDS011;26250;45.422;11.100;2023-07-20T22:22:08;11.52;;;4.72;;
40555;SDS011;26250;45.422;11.100;2023-07-20T22:24:36;4.88;;;4.47;;
40555;SDS011;26250;45.422;11.100;2023-07-20T22:27:03;5.72;;;5.10;;
40555;SDS011;26250;45.422;11.100;2023-07-20T22:29:31;5.50;;;4.93;;
40555;SDS011;26250;45.422;11.100;2023-07-20T22:32:04;11.07;;;5.60;;
40555;SDS011;26250;45.422;11.100;2023-07-20T22:34:32;9.70;;;5.43;;
40555;SDS011;26250;45.422;11.100;2023-07-20T22:37:00;9.68;;;4.93;;
40555;SDS011;26250;45.422;11.100;2023-07-20T22:39:27;16.67;;;5.70;;
40555;SDS011;26250;45.422;11.100;2023-07-20T22:42:01;7.18;;;5.28;;
40555;SDS011;26250;45.422;11.100;2023-07-20T22:44:29;5.93;;;4.70;;
40555;SDS011;26250;45.422;11.100;2023-07-20T22:46:57;7.82;;;4.85;;
40555;SDS011;26250;45.422;11.100;2023-07-20T22:49:29;6.18;;;4.95;;
40555;SDS011;26250;45.422;11.100;2023-07-20T22:52:02;6.72;;;4.85;;
40555;SDS011;26250;45.422;11.100;2023-07-20T22:54:30;5.90;;;4.05;;
40555;SDS011;26250;45.422;11.100;2023-07-20T22:56:57;8.13;;;4.65;;
40555;SDS011;26250;45.422;11.100;2023-07-20T22:59:24;7.38;;;4.28;;
40555;SDS011;26250;45.422;11.100;2023-07-20T23:01:54;9.40;;;4.60;;
40555;SDS011;26250;45.422;11.100;2023-07-20T23:04:21;7.25;;;4.40;;
40555;SDS011;26250;45.422;11.100;2023-07-20T23:06:49;8.70;;;5.05;;
40555;SDS011;26250;45.422;11.100;2023-07-20T23:09:16;8.07;;;4.93;;
40555;SDS011;26250;45.422;11.100;2023-07-20T23:11:45;8.00;;;5.68;;
40555;SDS011;26250;45.422;11.100;2023-07-20T23:14:12;9.02;;;5.95;;
40555;SDS011;26250;45.422;11.100;2023-07-20T23:16:39;17.60;;;5.97;;
40555;SDS011;26250;45.422;11.100;2023-07-20T23:19:06;11.38;;;6.03;;
40555;SDS011;26250;45.422;11.100;2023-07-20T23:21:33;8.57;;;5.50;;
40555;SDS011;26250;45.422;11.100;2023-07-20T23:24:00;10.23;;;5.45;;